sensor_id;sensor_type;location;lat;lon;timestamp;temperature;humidity
6377;DHT22;3221;48.858;10.128;2024-01-06T00:01:17;4.70;99.90
6377;DHT22;3221;48.858;10.128;2024-01-06T00:03:44;4.80;99.90
6377;DHT22;3221;48.858;10.128;2024-01-06T00:06:14;4.80;99.90
6377;DHT22;3221;48.858;10.128;2024-01-06T00:08:41;4.80;99.90
6377;DHT22;3221;48.858;10.128;2024-01-06T00:11:09;4.70;99.90
6377;DHT22;3221;48.858;10.128;2024-01-06T00:13:36;4.70;99.90
6377;DHT22;3221;48.858;10.128;2024-01-06T00:16:03;4.60;99.90
6377;DHT22;3221;48.858;10.128;2024-01-06T00:18:29;4.60;99.90
6377;DHT22;3221;48.858;10.128;2024-01-06T00:20:57;4.60;99.90
6377;DHT22;3221;48.858;10.128;2024-01-06T00:23:24;4.50;99.90
6377;DHT22;3221;48.858;10.128;2024-01-06T00:25:51;4.40;99.90
6377;DHT22;3221;48.858;10.128;2024-01-06T00:28:18;4.40;99.90
6377;DHT22;3221;48.858;10.128;2024-01-06T00:30:45;4.50;99.90
6377;DHT22;3221;48.858;10.128;2024-01-06T00:33:12;4.50;99.90
6377;DHT22;3221;48.858;10.128;2024-01-06T00:35:40;4.50;99.90
6377;DHT22;3221;48.858;10.128;2024-01-06T00:38:07;4.30;99.90
6377;DHT22;3221;48.858;10.128;2024-01-06T00:40:33;4.20;99.90
6377;DHT22;3221;48.858;10.128;2024-01-06T00:43:00;4.20;99.90
6377;DHT22;3221;48.858;10.128;2024-01-06T00:45:27;4.20;99.90
6377;DHT22;3221;48.858;10.128;2024-01-06T00:47:54;4.20;99.90
6377;DHT22;3221;48.858;10.128;2024-01-06T00:50:21;4.20;99.90
6377;DHT22;3221;48.858;10.128;2024-01-06T00:52:48;4.20;99.90
6377;DHT22;3221;48.858;10.128;2024-01-06T00:55:15;4.20;99.90
6377;DHT22;3221;48.858;10.128;2024-01-06T00:57:41;4.10;99.90
6377;DHT22;3221;48.858;10.128;2024-01-06T01:00:09;4.00;99.90
6377;DHT22;3221;48.858;10.128;2024-01-06T01:02:36;4.10;99.90
6377;DHT22;3221;48.858;10.128;2024-01-06T01:05:06;4.10;99.90
6377;DHT22;3221;48.858;10.128;2024-01-06T01:07:36;4.10;99.90
6377;DHT22;3221;48.858;10.128;2024-01-06T01:10:03;4.10;99.90
6377;DHT22;3221;48.858;10.128;2024-01-06T01:12:31;4.20;99.90
6377;DHT22;3221;48.858;10.128;2024-01-06T01:14:58;4.30;99.90
6377;DHT22;3221;48.858;10.128;2024-01-06T01:17:25;4.20;99.90
6377;DHT22;3221;48.858;10.128;2024-01-06T01:19:52;4.10;99.90
6377;DHT22;3221;48.858;10.128;2024-01-06T01:22:19;4.10;99.90
6377;DHT22;3221;48.858;10.128;2024-01-06T01:24:46;4.20;99.90
6377;DHT22;3221;48.858;10.128;2024-01-06T01:27:13;4.20;99.90
6377;DHT22;3221;48.858;10.128;2024-01-06T01:29:40;4.40;99.90
6377;DHT22;3221;48.858;10.128;2024-01-06T01:32:06;4.40;99.90
6377;DHT22;3221;48.858;10.128;2024-01-06T01:34:34;4.30;99.90
6377;DHT22;3221;48.858;10.128;2024-01-06T01:37:01;4.30;99.90
6377;DHT22;3221;48.858;10.128;2024-01-06T01:39:28;4.30;99.90
6377;DHT22;3221;48.858;10.128;2024-01-06T01:41:55;4.20;99.90
6377;DHT22;3221;48.858;10.128;2024-01-06T01:44:22;4.10;99.90
6377;DHT22;3221;48.858;10.128;2024-01-06T01:46:49;4.20;99.90
6377;DHT22;3221;48.858;10.128;2024-01-06T01:49:16;4.20;99.90
6377;DHT22;3221;48.858;10.128;2024-01-06T01:51:43;4.20;99.90
6377;DHT22;3221;48.858;10.128;2024-01-06T01:54:11;4.30;99.90
6377;DHT22;3221;48.858;10.128;2024-01-06T01:56:39;4.40;99.90
6377;DHT22;3221;48.858;10.128;2024-01-06T01:59:12;4.40;99.90
6377;DHT22;3221;48.858;10.128;2024-01-06T02:01:42;4.40;99.90
6377;DHT22;3221;48.858;10.128;2024-01-06T02:04:09;4.40;99.90
6377;DHT22;3221;48.858;10.128;2024-01-06T02:06:36;4.40;99.90
6377;DHT22;3221;48.858;10.128;2024-01-06T02:09:03;4.40;99.90
6377;DHT22;3221;48.858;10.128;2024-01-06T02:11:30;4.40;99.90
6377;DHT22;3221;48.858;10.128;2024-01-06T02:13:57;4.40;99.90
6377;DHT22;3221;48.858;10.128;2024-01-06T02:16:24;4.30;99.90
6377;DHT22;3221;48.858;10.128;2024-01-06T02:18:51;4.50;99.90
6377;DHT22;3221;48.858;10.128;2024-01-06T02:21:19;4.40;99.90
6377;DHT22;3221;48.858;10.128;2024-01-06T02:23:48;4.30;99.90
6377;DHT22;3221;48.858;10.128;2024-01-06T02:26:16;4.40;99.90
6377;DHT22;3221;48.858;10.128;2024-01-06T02:28:43;4.40;99.90
6377;DHT22;3221;48.858;10.128;2024-01-06T02:31:14;4.50;99.90
6377;DHT22;3221;48.858;10.128;2024-01-06T02:33:41;4.60;99.90
6377;DHT22;3221;48.858;10.128;2024-01-06T02:36:08;4.50;99.90
6377;DHT22;3221;48.858;10.128;2024-01-06T02:38:35;4.50;99.90
6377;DHT22;3221;48.858;10.128;2024-01-06T02:41:02;4.50;99.90
6377;DHT22;3221;48.858;10.128;2024-01-06T02:43:29;4.40;99.90
6377;DHT22;3221;48.858;10.128;2024-01-06T02:45:56;4.40;99.90
6377;DHT22;3221;48.858;10.128;2024-01-06T02:48:23;4.40;99.90
6377;DHT22;3221;48.858;10.128;2024-01-06T02:50:50;4.40;99.90
6377;DHT22;3221;48.858;10.128;2024-01-06T02:53:17;4.50;99.90
6377;DHT22;3221;48.858;10.128;2024-01-06T02:55:44;4.40;99.90
6377;DHT22;3221;48.858;10.128;2024-01-06T02:58:11;4.40;99.90
6377;DHT22;3221;48.858;10.128;2024-01-06T03:00:38;4.40;99.90
6377;DHT22;3221;48.858;10.128;2024-01-06T03:03:05;4.40;99.90
6377;DHT22;3221;48.858;10.128;2024-01-06T03:05:32;4.50;99.90
6377;DHT22;3221;48.858;10.128;2024-01-06T03:07:59;4.60;99.90
6377;DHT22;3221;48.858;10.128;2024-01-06T03:10:26;4.60;99.90
6377;DHT22;3221;48.858;10.128;2024-01-06T03:12:53;4.50;99.90
6377;DHT22;3221;48.858;10.128;2024-01-06T03:15:20;4.70;99.90
6377;DHT22;3221;48.858;10.128;2024-01-06T03:17:48;4.70;99.90
6377;DHT22;3221;48.858;10.128;2024-01-06T03:20:15;4.60;99.90
6377;DHT22;3221;48.858;10.128;2024-01-06T03:22:43;4.60;99.90
6377;DHT22;3221;48.858;10.128;2024-01-06T03:25:09;4.50;99.90
6377;DHT22;3221;48.858;10.128;2024-01-06T03:27:36;4.50;99.90
6377;DHT22;3221;48.858;10.128;2024-01-06T03:30:04;4.50;99.90
6377;DHT22;3221;48.858;10.128;2024-01-06T03:32:31;4.40;99.90
6377;DHT22;3221;48.858;10.128;2024-01-06T03:34:58;4.40;99.90
6377;DHT22;3221;48.858;10.128;2024-01-06T03:37:25;4.50;99.90
6377;DHT22;3221;48.858;10.128;2024-01-06T03:39:52;4.50;99.90
6377;DHT22;3221;48.858;10.128;2024-01-06T03:42:19;4.40;99.90
6377;DHT22;3221;48.858;10.128;2024-01-06T03:44:46;4.40;99.90
6377;DHT22;3221;48.858;10.128;2024-01-06T03:47:13;4.40;99.90
6377;DHT22;3221;48.858;10.128;2024-01-06T03:49:40;4.30;99.90
6377;DHT22;3221;48.858;10.128;2024-01-06T03:52:07;4.40;99.90
6377;DHT22;3221;48.858;10.128;2024-01-06T03:54:34;4.20;99.90
6377;DHT22;3221;48.858;10.128;2024-01-06T03:57:01;4.20;99.90
6377;DHT22;3221;48.858;10.128;2024-01-06T03:59:27;4.30;99.90
6377;DHT22;3221;48.858;10.128;2024-01-06T04:01:55;4.30;99.90
6377;DHT22;3221;48.858;10.128;2024-01-06T04:04:21;4.20;99.90
6377;DHT22;3221;48.858;10.128;2024-01-06T04:06:48;4.20;99.90
6377;DHT22;3221;48.858;10.128;2024-01-06T04:09:15;4.20;99.90
6377;DHT22;3221;48.858;10.128;2024-01-06T04:11:44;4.20;99.90
6377;DHT22;3221;48.858;10.128;2024-01-06T04:14:11;4.10;99.90
6377;DHT22;3221;48.858;10.128;2024-01-06T04:16:38;4.20;99.90
6377;DHT22;3221;48.858;10.128;2024-01-06T04:19:05;4.10;99.90
6377;DHT22;3221;48.858;10.128;2024-01-06T04:21:34;4.10;99.90
6377;DHT22;3221;48.858;10.128;2024-01-06T04:24:01;4.10;99.90
6377;DHT22;3221;48.858;10.128;2024-01-06T04:26:28;4.10;99.90
6377;DHT22;3221;48.858;10.128;2024-01-06T04:28:55;4.10;99.90
6377;DHT22;3221;48.858;10.128;2024-01-06T04:31:21;3.90;99.90
6377;DHT22;3221;48.858;10.128;2024-01-06T04:33:48;3.90;99.90
6377;DHT22;3221;48.858;10.128;2024-01-06T04:36:15;4.00;99.90
6377;DHT22;3221;48.858;10.128;2024-01-06T04:38:42;4.00;99.90
6377;DHT22;3221;48.858;10.128;2024-01-06T04:41:09;4.20;99.90
6377;DHT22;3221;48.858;10.128;2024-01-06T04:43:36;4.20;99.90
6377;DHT22;3221;48.858;10.128;2024-01-06T04:46:03;4.20;99.90
6377;DHT22;3221;48.858;10.128;2024-01-06T04:48:30;4.20;99.90
6377;DHT22;3221;48.858;10.128;2024-01-06T04:50:57;4.20;99.90
6377;DHT22;3221;48.858;10.128;2024-01-06T04:53:23;4.20;99.90
6377;DHT22;3221;48.858;10.128;2024-01-06T04:55:50;4.20;99.90
6377;DHT22;3221;48.858;10.128;2024-01-06T04:58:17;4.30;99.90
6377;DHT22;3221;48.858;10.128;2024-01-06T05:00:44;4.40;99.90
6377;DHT22;3221;48.858;10.128;2024-01-06T05:03:11;4.30;99.90
6377;DHT22;3221;48.858;10.128;2024-01-06T05:05:38;4.20;99.90
6377;DHT22;3221;48.858;10.128;2024-01-06T05:08:06;4.30;99.90
6377;DHT22;3221;48.858;10.128;2024-01-06T05:10:33;4.20;99.90
6377;DHT22;3221;48.858;10.128;2024-01-06T05:12:59;4.20;99.90
6377;DHT22;3221;48.858;10.128;2024-01-06T05:15:26;4.10;99.90
6377;DHT22;3221;48.858;10.128;2024-01-06T05:17:53;4.20;99.90
6377;DHT22;3221;48.858;10.128;2024-01-06T05:20:20;4.20;99.90
6377;DHT22;3221;48.858;10.128;2024-01-06T05:22:47;4.10;99.90
6377;DHT22;3221;48.858;10.128;2024-01-06T05:25:15;4.10;99.90
6377;DHT22;3221;48.858;10.128;2024-01-06T05:27:41;4.20;99.90
6377;DHT22;3221;48.858;10.128;2024-01-06T05:30:09;4.20;99.90
6377;DHT22;3221;48.858;10.128;2024-01-06T05:32:37;4.20;99.90
6377;DHT22;3221;48.858;10.128;2024-01-06T05:35:05;4.20;99.90
6377;DHT22;3221;48.858;10.128;2024-01-06T05:37:32;4.20;99.90
6377;DHT22;3221;48.858;10.128;2024-01-06T05:39:59;4.20;99.90
6377;DHT22;3221;48.858;10.128;2024-01-06T05:42:28;4.10;99.90
6377;DHT22;3221;48.858;10.128;2024-01-06T05:44:55;4.10;99.90
6377;DHT22;3221;48.858;10.128;2024-01-06T05:47:22;4.10;99.90
6377;DHT22;3221;48.858;10.128;2024-01-06T05:49:49;4.10;99.90
6377;DHT22;3221;48.858;10.128;2024-01-06T05:52:16;4.20;99.90
6377;DHT22;3221;48.858;10.128;2024-01-06T05:54:43;4.30;99.90
6377;DHT22;3221;48.858;10.128;2024-01-06T05:57:10;4.30;99.90
6377;DHT22;3221;48.858;10.128;2024-01-06T05:59:37;4.20;99.90
6377;DHT22;3221;48.858;10.128;2024-01-06T06:02:04;4.10;99.90
6377;DHT22;3221;48.858;10.128;2024-01-06T06:04:30;4.10;99.90
6377;DHT22;3221;48.858;10.128;2024-01-06T06:06:58;4.10;99.90
6377;DHT22;3221;48.858;10.128;2024-01-06T06:09:28;4.00;99.90
6377;DHT22;3221;48.858;10.128;2024-01-06T06:11:55;4.10;99.90
6377;DHT22;3221;48.858;10.128;2024-01-06T06:14:22;4.10;99.90
6377;DHT22;3221;48.858;10.128;2024-01-06T06:16:53;4.10;99.90
6377;DHT22;3221;48.858;10.128;2024-01-06T06:19:20;4.10;99.90
6377;DHT22;3221;48.858;10.128;2024-01-06T06:21:47;4.00;99.90
6377;DHT22;3221;48.858;10.128;2024-01-06T06:24:14;4.10;99.90
6377;DHT22;3221;48.858;10.128;2024-01-06T06:26:41;4.10;99.90
6377;DHT22;3221;48.858;10.128;2024-01-06T06:29:08;4.00;99.90
6377;DHT22;3221;48.858;10.128;2024-01-06T06:31:35;4.00;99.90
6377;DHT22;3221;48.858;10.128;2024-01-06T06:34:02;4.00;99.90
6377;DHT22;3221;48.858;10.128;2024-01-06T06:36:34;4.00;99.90
6377;DHT22;3221;48.858;10.128;2024-01-06T06:39:01;4.00;99.90
6377;DHT22;3221;48.858;10.128;2024-01-06T06:41:30;4.00;99.90
6377;DHT22;3221;48.858;10.128;2024-01-06T06:43:58;4.00;99.90
6377;DHT22;3221;48.858;10.128;2024-01-06T06:46:24;4.00;99.90
6377;DHT22;3221;48.858;10.128;2024-01-06T06:48:51;4.10;99.90
6377;DHT22;3221;48.858;10.128;2024-01-06T06:51:18;4.00;99.90
6377;DHT22;3221;48.858;10.128;2024-01-06T06:53:45;4.00;99.90
6377;DHT22;3221;48.858;10.128;2024-01-06T06:56:16;4.00;99.90
6377;DHT22;3221;48.858;10.128;2024-01-06T06:58:44;4.00;99.90
6377;DHT22;3221;48.858;10.128;2024-01-06T07:01:14;4.00;99.90
6377;DHT22;3221;48.858;10.128;2024-01-06T07:03:41;3.90;99.90
6377;DHT22;3221;48.858;10.128;2024-01-06T07:06:08;3.80;99.90
6377;DHT22;3221;48.858;10.128;2024-01-06T07:08:37;3.90;99.90
6377;DHT22;3221;48.858;10.128;2024-01-06T07:11:05;4.00;99.90
6377;DHT22;3221;48.858;10.128;2024-01-06T07:13:31;4.10;99.90
6377;DHT22;3221;48.858;10.128;2024-01-06T07:15:58;4.10;99.90
6377;DHT22;3221;48.858;10.128;2024-01-06T07:18:43;3.90;99.90
6377;DHT22;3221;48.858;10.128;2024-01-06T07:21:12;4.00;99.90
6377;DHT22;3221;48.858;10.128;2024-01-06T07:23:39;4.10;99.90
6377;DHT22;3221;48.858;10.128;2024-01-06T07:26:06;4.00;99.90
6377;DHT22;3221;48.858;10.128;2024-01-06T07:28:34;4.00;99.90
6377;DHT22;3221;48.858;10.128;2024-01-06T07:31:01;4.00;99.90
6377;DHT22;3221;48.858;10.128;2024-01-06T07:33:29;4.10;99.90
6377;DHT22;3221;48.858;10.128;2024-01-06T07:35:59;3.90;99.90
6377;DHT22;3221;48.858;10.128;2024-01-06T07:38:26;3.90;99.90
6377;DHT22;3221;48.858;10.128;2024-01-06T07:40:52;3.90;99.90
6377;DHT22;3221;48.858;10.128;2024-01-06T07:43:21;3.90;99.90
6377;DHT22;3221;48.858;10.128;2024-01-06T07:45:48;3.80;99.90
6377;DHT22;3221;48.858;10.128;2024-01-06T07:48:18;3.70;99.90
6377;DHT22;3221;48.858;10.128;2024-01-06T07:50:45;3.70;99.90
6377;DHT22;3221;48.858;10.128;2024-01-06T07:53:12;3.80;99.90
6377;DHT22;3221;48.858;10.128;2024-01-06T07:55:40;3.90;99.90
6377;DHT22;3221;48.858;10.128;2024-01-06T07:58:07;3.90;99.90
6377;DHT22;3221;48.858;10.128;2024-01-06T08:00:34;3.90;99.90
6377;DHT22;3221;48.858;10.128;2024-01-06T08:03:01;4.00;99.90
6377;DHT22;3221;48.858;10.128;2024-01-06T08:05:29;4.00;99.90
6377;DHT22;3221;48.858;10.128;2024-01-06T08:07:56;3.90;99.90
6377;DHT22;3221;48.858;10.128;2024-01-06T08:10:22;4.00;99.90
6377;DHT22;3221;48.858;10.128;2024-01-06T08:12:49;3.90;99.90
6377;DHT22;3221;48.858;10.128;2024-01-06T08:15:16;3.90;99.90
6377;DHT22;3221;48.858;10.128;2024-01-06T08:17:43;3.90;99.90
6377;DHT22;3221;48.858;10.128;2024-01-06T08:20:10;3.90;99.90
6377;DHT22;3221;48.858;10.128;2024-01-06T08:22:39;3.90;99.90
6377;DHT22;3221;48.858;10.128;2024-01-06T08:25:07;4.10;99.90
6377;DHT22;3221;48.858;10.128;2024-01-06T08:27:34;3.90;99.90
6377;DHT22;3221;48.858;10.128;2024-01-06T08:30:01;3.90;99.90
6377;DHT22;3221;48.858;10.128;2024-01-06T08:32:28;3.90;99.90
6377;DHT22;3221;48.858;10.128;2024-01-06T08:34:55;3.90;99.90
6377;DHT22;3221;48.858;10.128;2024-01-06T08:37:25;3.80;99.90
6377;DHT22;3221;48.858;10.128;2024-01-06T08:39:53;3.80;99.90
6377;DHT22;3221;48.858;10.128;2024-01-06T08:42:20;3.80;99.90
6377;DHT22;3221;48.858;10.128;2024-01-06T08:44:47;3.70;99.90
6377;DHT22;3221;48.858;10.128;2024-01-06T08:47:14;3.80;99.90
6377;DHT22;3221;48.858;10.128;2024-01-06T08:49:41;3.90;99.90
6377;DHT22;3221;48.858;10.128;2024-01-06T08:52:08;3.80;99.90
6377;DHT22;3221;48.858;10.128;2024-01-06T08:54:35;3.90;99.90
6377;DHT22;3221;48.858;10.128;2024-01-06T08:57:02;4.00;99.90
6377;DHT22;3221;48.858;10.128;2024-01-06T08:59:29;4.10;99.90
6377;DHT22;3221;48.858;10.128;2024-01-06T09:01:56;4.10;99.90
6377;DHT22;3221;48.858;10.128;2024-01-06T09:04:23;4.00;99.90
6377;DHT22;3221;48.858;10.128;2024-01-06T09:06:50;4.10;99.90
6377;DHT22;3221;48.858;10.128;2024-01-06T09:09:18;4.00;99.90
6377;DHT22;3221;48.858;10.128;2024-01-06T09:11:45;4.00;99.90
6377;DHT22;3221;48.858;10.128;2024-01-06T09:14:14;4.00;99.90
6377;DHT22;3221;48.858;10.128;2024-01-06T09:16:41;4.00;99.90
6377;DHT22;3221;48.858;10.128;2024-01-06T09:19:08;4.00;99.90
6377;DHT22;3221;48.858;10.128;2024-01-06T09:21:35;4.00;99.90
6377;DHT22;3221;48.858;10.128;2024-01-06T09:24:03;4.00;99.90
6377;DHT22;3221;48.858;10.128;2024-01-06T09:26:33;4.10;99.90
6377;DHT22;3221;48.858;10.128;2024-01-06T09:29:01;3.80;99.90
6377;DHT22;3221;48.858;10.128;2024-01-06T09:31:29;3.80;99.90
6377;DHT22;3221;48.858;10.128;2024-01-06T09:33:59;3.90;99.90
6377;DHT22;3221;48.858;10.128;2024-01-06T09:36:27;3.90;99.90
6377;DHT22;3221;48.858;10.128;2024-01-06T09:38:54;3.80;99.90
6377;DHT22;3221;48.858;10.128;2024-01-06T09:41:21;3.90;99.90
6377;DHT22;3221;48.858;10.128;2024-01-06T09:43:51;3.90;99.90
6377;DHT22;3221;48.858;10.128;2024-01-06T09:46:24;3.80;99.90
6377;DHT22;3221;48.858;10.128;2024-01-06T09:48:56;3.90;99.90
6377;DHT22;3221;48.858;10.128;2024-01-06T09:51:25;3.90;99.90
6377;DHT22;3221;48.858;10.128;2024-01-06T09:54:00;3.90;99.90
6377;DHT22;3221;48.858;10.128;2024-01-06T09:56:28;4.00;99.90
6377;DHT22;3221;48.858;10.128;2024-01-06T09:58:56;4.00;99.90
6377;DHT22;3221;48.858;10.128;2024-01-06T10:01:23;4.00;99.90
6377;DHT22;3221;48.858;10.128;2024-01-06T10:03:50;3.90;99.90
6377;DHT22;3221;48.858;10.128;2024-01-06T10:06:18;4.00;99.90
6377;DHT22;3221;48.858;10.128;2024-01-06T10:08:49;4.00;99.90
6377;DHT22;3221;48.858;10.128;2024-01-06T10:11:18;4.00;99.90
6377;DHT22;3221;48.858;10.128;2024-01-06T10:13:45;4.00;99.90
6377;DHT22;3221;48.858;10.128;2024-01-06T10:16:12;3.80;99.90
6377;DHT22;3221;48.858;10.128;2024-01-06T10:18:39;3.90;99.90
6377;DHT22;3221;48.858;10.128;2024-01-06T10:21:08;3.80;99.90
6377;DHT22;3221;48.858;10.128;2024-01-06T10:23:36;4.00;99.90
6377;DHT22;3221;48.858;10.128;2024-01-06T10:26:03;3.90;99.90
6377;DHT22;3221;48.858;10.128;2024-01-06T10:28:31;4.00;99.90
6377;DHT22;3221;48.858;10.128;2024-01-06T10:30:59;4.00;99.90
6377;DHT22;3221;48.858;10.128;2024-01-06T10:33:26;3.90;99.90
6377;DHT22;3221;48.858;10.128;2024-01-06T10:35:54;3.90;99.90
6377;DHT22;3221;48.858;10.128;2024-01-06T10:38:22;4.00;99.90
6377;DHT22;3221;48.858;10.128;2024-01-06T10:41:02;3.90;99.90
6377;DHT22;3221;48.858;10.128;2024-01-06T10:43:34;4.00;99.90
6377;DHT22;3221;48.858;10.128;2024-01-06T10:46:03;4.00;99.90
6377;DHT22;3221;48.858;10.128;2024-01-06T10:48:32;4.00;99.90
6377;DHT22;3221;48.858;10.128;2024-01-06T10:51:01;3.80;99.90
6377;DHT22;3221;48.858;10.128;2024-01-06T10:53:34;3.70;99.90
6377;DHT22;3221;48.858;10.128;2024-01-06T10:56:06;3.90;99.90
6377;DHT22;3221;48.858;10.128;2024-01-06T10:58:47;3.90;99.90
6377;DHT22;3221;48.858;10.128;2024-01-06T11:01:21;3.90;99.90
6377;DHT22;3221;48.858;10.128;2024-01-06T11:03:54;3.80;99.90
6377;DHT22;3221;48.858;10.128;2024-01-06T11:06:22;3.90;99.90
6377;DHT22;3221;48.858;10.128;2024-01-06T11:11:36;4.00;99.90
6377;DHT22;3221;48.858;10.128;2024-01-06T11:14:23;4.00;99.90
6377;DHT22;3221;48.858;10.128;2024-01-06T11:16:52;4.00;99.90
6377;DHT22;3221;48.858;10.128;2024-01-06T11:22:28;4.00;99.90
6377;DHT22;3221;48.858;10.128;2024-01-06T11:25:13;4.00;99.90
6377;DHT22;3221;48.858;10.128;2024-01-06T11:27:42;4.00;99.90
6377;DHT22;3221;48.858;10.128;2024-01-06T11:30:22;4.10;99.90
6377;DHT22;3221;48.858;10.128;2024-01-06T11:32:54;4.20;99.90
6377;DHT22;3221;48.858;10.128;2024-01-06T11:35:22;4.10;99.90
6377;DHT22;3221;48.858;10.128;2024-01-06T11:37:56;4.10;99.90
6377;DHT22;3221;48.858;10.128;2024-01-06T11:40:25;4.00;99.90
6377;DHT22;3221;48.858;10.128;2024-01-06T11:45:24;4.00;99.90
6377;DHT22;3221;48.858;10.128;2024-01-06T11:47:55;3.90;99.90
6377;DHT22;3221;48.858;10.128;2024-01-06T11:50:23;3.90;99.90
6377;DHT22;3221;48.858;10.128;2024-01-06T11:52:50;3.90;99.90
6377;DHT22;3221;48.858;10.128;2024-01-06T11:55:18;4.00;99.90
6377;DHT22;3221;48.858;10.128;2024-01-06T11:57:45;4.00;99.90
6377;DHT22;3221;48.858;10.128;2024-01-06T12:00:14;3.90;99.90
6377;DHT22;3221;48.858;10.128;2024-01-06T12:02:41;4.00;99.90
6377;DHT22;3221;48.858;10.128;2024-01-06T12:05:16;4.10;99.90
6377;DHT22;3221;48.858;10.128;2024-01-06T12:07:55;4.10;99.90
6377;DHT22;3221;48.858;10.128;2024-01-06T12:10:24;4.10;99.90
6377;DHT22;3221;48.858;10.128;2024-01-06T12:13:01;4.00;99.90
6377;DHT22;3221;48.858;10.128;2024-01-06T12:15:29;3.90;99.90
6377;DHT22;3221;48.858;10.128;2024-01-06T12:17:57;3.90;99.90
6377;DHT22;3221;48.858;10.128;2024-01-06T12:20:26;3.90;99.90
6377;DHT22;3221;48.858;10.128;2024-01-06T12:22:53;3.90;99.90
6377;DHT22;3221;48.858;10.128;2024-01-06T12:25:21;4.00;99.90
6377;DHT22;3221;48.858;10.128;2024-01-06T12:27:49;4.00;99.90
6377;DHT22;3221;48.858;10.128;2024-01-06T12:30:18;4.00;99.90
6377;DHT22;3221;48.858;10.128;2024-01-06T12:32:47;3.90;99.90
6377;DHT22;3221;48.858;10.128;2024-01-06T12:35:16;4.00;99.90
6377;DHT22;3221;48.858;10.128;2024-01-06T12:37:44;3.90;99.90
6377;DHT22;3221;48.858;10.128;2024-01-06T12:40:12;3.90;99.90
6377;DHT22;3221;48.858;10.128;2024-01-06T12:42:40;3.90;99.90
6377;DHT22;3221;48.858;10.128;2024-01-06T12:45:07;3.90;99.90
6377;DHT22;3221;48.858;10.128;2024-01-06T12:47:34;3.70;99.90
6377;DHT22;3221;48.858;10.128;2024-01-06T12:50:02;3.60;99.90
6377;DHT22;3221;48.858;10.128;2024-01-06T12:52:30;3.50;99.90
6377;DHT22;3221;48.858;10.128;2024-01-06T12:54:57;3.50;99.90
6377;DHT22;3221;48.858;10.128;2024-01-06T12:57:24;3.60;99.90
6377;DHT22;3221;48.858;10.128;2024-01-06T12:59:51;3.70;99.90
6377;DHT22;3221;48.858;10.128;2024-01-06T13:02:18;3.70;99.90
6377;DHT22;3221;48.858;10.128;2024-01-06T13:04:47;3.80;99.90
6377;DHT22;3221;48.858;10.128;2024-01-06T13:07:15;4.00;99.90
6377;DHT22;3221;48.858;10.128;2024-01-06T13:09:42;3.90;99.90
6377;DHT22;3221;48.858;10.128;2024-01-06T13:12:09;3.90;99.90
6377;DHT22;3221;48.858;10.128;2024-01-06T13:14:35;3.90;99.90
6377;DHT22;3221;48.858;10.128;2024-01-06T13:17:02;4.00;99.90
6377;DHT22;3221;48.858;10.128;2024-01-06T13:19:30;4.00;99.90
6377;DHT22;3221;48.858;10.128;2024-01-06T13:21:57;4.00;99.90
6377;DHT22;3221;48.858;10.128;2024-01-06T13:24:24;4.00;99.90
6377;DHT22;3221;48.858;10.128;2024-01-06T13:26:50;4.00;99.90
6377;DHT22;3221;48.858;10.128;2024-01-06T13:29:18;4.00;99.90
6377;DHT22;3221;48.858;10.128;2024-01-06T13:31:45;4.00;99.90
6377;DHT22;3221;48.858;10.128;2024-01-06T13:34:13;4.00;99.90
6377;DHT22;3221;48.858;10.128;2024-01-06T13:36:40;4.10;99.90
6377;DHT22;3221;48.858;10.128;2024-01-06T13:39:07;4.00;99.90
6377;DHT22;3221;48.858;10.128;2024-01-06T13:41:34;4.10;99.90
6377;DHT22;3221;48.858;10.128;2024-01-06T13:44:02;4.10;99.90
6377;DHT22;3221;48.858;10.128;2024-01-06T13:46:29;4.00;99.90
6377;DHT22;3221;48.858;10.128;2024-01-06T13:48:56;3.90;99.90
6377;DHT22;3221;48.858;10.128;2024-01-06T13:51:23;3.90;99.90
6377;DHT22;3221;48.858;10.128;2024-01-06T13:53:51;3.70;99.90
6377;DHT22;3221;48.858;10.128;2024-01-06T13:56:18;3.60;99.90
6377;DHT22;3221;48.858;10.128;2024-01-06T13:58:45;3.80;99.90
6377;DHT22;3221;48.858;10.128;2024-01-06T14:01:12;3.60;99.90
6377;DHT22;3221;48.858;10.128;2024-01-06T14:03:39;3.50;99.90
6377;DHT22;3221;48.858;10.128;2024-01-06T14:06:06;3.40;99.90
6377;DHT22;3221;48.858;10.128;2024-01-06T14:08:34;3.60;99.90
6377;DHT22;3221;48.858;10.128;2024-01-06T14:11:01;3.60;99.90
6377;DHT22;3221;48.858;10.128;2024-01-06T14:13:27;3.60;99.90
6377;DHT22;3221;48.858;10.128;2024-01-06T14:15:59;3.70;99.90
6377;DHT22;3221;48.858;10.128;2024-01-06T14:18:26;3.70;99.90
6377;DHT22;3221;48.858;10.128;2024-01-06T14:20:54;3.60;99.90
6377;DHT22;3221;48.858;10.128;2024-01-06T14:23:22;3.50;99.90
6377;DHT22;3221;48.858;10.128;2024-01-06T14:25:50;3.50;99.90
6377;DHT22;3221;48.858;10.128;2024-01-06T14:28:17;3.50;99.90
6377;DHT22;3221;48.858;10.128;2024-01-06T14:30:44;3.60;99.90
6377;DHT22;3221;48.858;10.128;2024-01-06T14:33:11;3.60;99.90
6377;DHT22;3221;48.858;10.128;2024-01-06T14:35:38;3.80;99.90
6377;DHT22;3221;48.858;10.128;2024-01-06T14:38:05;3.90;99.90
6377;DHT22;3221;48.858;10.128;2024-01-06T14:40:32;3.90;99.90
6377;DHT22;3221;48.858;10.128;2024-01-06T14:42:59;3.80;99.90
6377;DHT22;3221;48.858;10.128;2024-01-06T14:45:29;3.80;99.90
6377;DHT22;3221;48.858;10.128;2024-01-06T14:47:56;3.70;99.90
6377;DHT22;3221;48.858;10.128;2024-01-06T14:50:23;3.70;99.90
6377;DHT22;3221;48.858;10.128;2024-01-06T14:52:50;3.90;99.90
6377;DHT22;3221;48.858;10.128;2024-01-06T14:55:17;3.90;99.90
6377;DHT22;3221;48.858;10.128;2024-01-06T14:57:44;3.80;99.90
6377;DHT22;3221;48.858;10.128;2024-01-06T15:00:12;3.80;99.90
6377;DHT22;3221;48.858;10.128;2024-01-06T15:02:39;3.90;99.90
6377;DHT22;3221;48.858;10.128;2024-01-06T15:05:06;3.80;99.90
6377;DHT22;3221;48.858;10.128;2024-01-06T15:07:33;3.70;99.90
6377;DHT22;3221;48.858;10.128;2024-01-06T15:10:01;3.70;99.90
6377;DHT22;3221;48.858;10.128;2024-01-06T15:12:30;3.70;99.90
6377;DHT22;3221;48.858;10.128;2024-01-06T15:14:57;3.70;99.90
6377;DHT22;3221;48.858;10.128;2024-01-06T15:17:27;3.70;99.90
6377;DHT22;3221;48.858;10.128;2024-01-06T15:19:54;3.90;99.90
6377;DHT22;3221;48.858;10.128;2024-01-06T15:22:21;3.90;99.90
6377;DHT22;3221;48.858;10.128;2024-01-06T15:24:49;3.80;99.90
6377;DHT22;3221;48.858;10.128;2024-01-06T15:27:24;3.70;99.90
6377;DHT22;3221;48.858;10.128;2024-01-06T15:29:51;3.70;99.90
6377;DHT22;3221;48.858;10.128;2024-01-06T15:32:18;3.50;99.90
6377;DHT22;3221;48.858;10.128;2024-01-06T15:34:45;3.30;99.90
6377;DHT22;3221;48.858;10.128;2024-01-06T15:37:12;3.40;99.90
6377;DHT22;3221;48.858;10.128;2024-01-06T15:39:39;3.30;99.90
6377;DHT22;3221;48.858;10.128;2024-01-06T15:42:06;3.40;99.90
6377;DHT22;3221;48.858;10.128;2024-01-06T15:44:32;3.40;99.90
6377;DHT22;3221;48.858;10.128;2024-01-06T15:47:00;3.50;99.90
6377;DHT22;3221;48.858;10.128;2024-01-06T15:49:28;3.50;99.90
6377;DHT22;3221;48.858;10.128;2024-01-06T15:51:55;3.50;99.90
6377;DHT22;3221;48.858;10.128;2024-01-06T15:54:24;3.60;99.90
6377;DHT22;3221;48.858;10.128;2024-01-06T15:56:51;3.60;99.90
6377;DHT22;3221;48.858;10.128;2024-01-06T15:59:18;3.70;99.90
6377;DHT22;3221;48.858;10.128;2024-01-06T16:01:45;3.60;99.90
6377;DHT22;3221;48.858;10.128;2024-01-06T16:04:12;3.60;99.90
6377;DHT22;3221;48.858;10.128;2024-01-06T16:06:39;3.60;99.90
6377;DHT22;3221;48.858;10.128;2024-01-06T16:09:06;3.40;99.90
6377;DHT22;3221;48.858;10.128;2024-01-06T16:11:38;3.50;99.90
6377;DHT22;3221;48.858;10.128;2024-01-06T16:14:06;3.50;99.90